Time;durP1;ratioP1;P1;durP2;ratioP2;P2;SDS_P1;SDS_P2;PMS_P1;PMS_P2;Temp;Humidity;BMP_temperature;BMP_pressure;BME280_temperature;BME280_humidity;BME280_pressure;Samples;Min_cycle;Max_cycle;Signal;HPM_P1;HPM_P2
2024/03/09 00:00:19;;;;;;;;;;;22.30;39.20;;;;;;5057338;28;19925;-61
2024/03/09 00:02:47;;;;;;;;;;;22.30;39.20;;;;;;5057168;28;19951;-61
2024/03/09 00:05:15;;;;;;;;;;;22.30;39.20;;;;;;5057001;28;19983;-61
2024/03/09 00:07:42;;;;;;;;;;;22.30;39.20;;;;;;5055642;28;19929;-61
2024/03/09 00:10:12;;;;;;;;;;;22.30;39.20;;;;;;5056712;28;20390;-62
2024/03/09 00:12:39;;;;;;;;;;;22.30;39.20;;;;;;5056489;28;19931;-62
2024/03/09 00:15:12;;;;;;;;;;;22.30;39.20;;;;;;5056583;28;20390;-64
2024/03/09 00:17:41;;;;;;;;;;;22.30;39.20;;;;;;5056978;28;19990;-62
2024/03/09 00:20:12;;;;;;;;;;;22.30;39.20;;;;;;5056523;28;19947;-61
2024/03/09 00:22:40;;;;;;;;;;;22.30;39.20;;;;;;5056864;28;19925;-64
2024/03/09 00:25:08;;;;;;;;;;;22.30;39.30;;;;;;5056741;28;19925;-62
2024/03/09 00:27:35;;;;;;;;;;;22.30;39.30;;;;;;5056853;28;19924;-64
2024/03/09 00:30:02;;;;;;;;;;;22.30;39.30;;;;;;5056837;28;20015;-62
2024/03/09 00:32:29;;;;;;;;;;;22.20;39.30;;;;;;5052975;28;19925;-64
2024/03/09 00:34:57;;;;;;;;;;;22.20;39.30;;;;;;5056473;28;19924;-66
2024/03/09 00:37:25;;;;;;;;;;;22.20;39.30;;;;;;5056145;28;19960;-62
2024/03/09 00:39:51;;;;;;;;;;;22.20;39.30;;;;;;5056157;28;19929;-62
2024/03/09 00:42:19;;;;;;;;;;;22.20;39.40;;;;;;5056405;28;20330;-62
2024/03/09 00:44:46;;;;;;;;;;;22.20;39.40;;;;;;5055578;28;19925;-62
2024/03/09 00:47:14;;;;;;;;;;;22.20;39.40;;;;;;5056034;28;19937;-62
2024/03/09 00:49:41;;;;;;;;;;;22.20;39.30;;;;;;5055201;28;19925;-61
2024/03/09 00:52:10;;;;;;;;;;;22.20;39.30;;;;;;5056144;28;20284;-62
2024/03/09 00:54:37;;;;;;;;;;;22.20;39.30;;;;;;5056206;28;19924;-62
2024/03/09 00:57:04;;;;;;;;;;;22.20;39.30;;;;;;5056121;28;19928;-62
2024/03/09 00:59:31;;;;;;;;;;;22.20;39.30;;;;;;5055836;28;20435;-62
2024/03/09 01:02:00;;;;;;;;;;;22.20;39.30;;;;;;5054830;28;19932;-62
2024/03/09 01:04:27;;;;;;;;;;;22.20;39.40;;;;;;5055930;28;20366;-62
2024/03/09 01:06:56;;;;;;;;;;;22.20;39.30;;;;;;5055460;28;19925;-61
2024/03/09 01:09:25;;;;;;;;;;;22.20;39.20;;;;;;5055689;28;19925;-62
2024/03/09 01:11:52;;;;;;;;;;;22.20;39.20;;;;;;5055595;28;19929;-61
2024/03/09 01:14:19;;;;;;;;;;;22.20;39.20;;;;;;5055872;28;20263;-62
2024/03/09 01:16:47;;;;;;;;;;;22.20;39.20;;;;;;5055693;28;20023;-61
2024/03/09 01:19:14;;;;;;;;;;;22.20;39.20;;;;;;5054590;28;20320;-61
2024/03/09 01:21:41;;;;;;;;;;;22.20;39.20;;;;;;5054588;28;20345;-62
2024/03/09 01:24:08;;;;;;;;;;;22.20;39.20;;;;;;5055662;28;19947;-62
2024/03/09 01:26:35;;;;;;;;;;;22.10;39.20;;;;;;5055691;28;19925;-62
2024/03/09 01:29:02;;;;;;;;;;;22.20;39.30;;;;;;5055190;28;20046;-62
2024/03/09 01:31:31;;;;;;;;;;;22.10;39.30;;;;;;5055244;28;20019;-62
2024/03/09 01:34:00;;;;;;;;;;;22.10;39.30;;;;;;5055232;28;19932;-62
2024/03/09 01:36:27;;;;;;;;;;;22.10;39.40;;;;;;5037643;28;19929;-62
2024/03/09 01:38:53;;;;;;;;;;;22.10;39.40;;;;;;5054539;28;19925;-61
2024/03/09 01:41:22;;;;;;;;;;;22.10;39.40;;;;;;5055419;28;19925;-62
2024/03/09 01:43:49;;;;;;;;;;;22.10;39.40;;;;;;5055385;28;19975;-62
2024/03/09 01:46:20;;;;;;;;;;;22.00;39.40;;;;;;5055093;28;19974;-62
2024/03/09 01:48:48;;;;;;;;;;;22.00;39.40;;;;;;5055051;28;19925;-61
2024/03/09 01:51:15;;;;;;;;;;;22.00;39.40;;;;;;5055117;28;19971;-62
2024/03/09 01:53:42;;;;;;;;;;;22.00;39.40;;;;;;5054762;28;19971;-61
2024/03/09 01:56:13;;;;;;;;;;;22.00;39.40;;;;;;5054728;28;19925;-62
2024/03/09 01:58:43;;;;;;;;;;;22.00;39.40;;;;;;5054856;28;19948;-61
2024/03/09 02:01:22;;;;;;;;;;;22.00;39.40;;;;;;5054408;28;20376;-63
2024/03/09 02:03:52;;;;;;;;;;;22.00;39.40;;;;;;5054639;28;20389;-62
2024/03/09 02:06:21;;;;;;;;;;;22.00;39.40;;;;;;5054786;28;19971;-61
2024/03/09 02:08:48;;;;;;;;;;;22.00;39.40;;;;;;5054376;28;20425;-61
2024/03/09 02:11:15;;;;;;;;;;;22.10;39.40;;;;;;5054720;28;20306;-61
2024/03/09 02:13:43;;;;;;;;;;;22.00;39.40;;;;;;5054816;28;20263;-61
2024/03/09 02:16:12;;;;;;;;;;;22.10;39.40;;;;;;5054669;28;19931;-61
2024/03/09 02:18:39;;;;;;;;;;;22.10;39.90;;;;;;5054593;28;20294;-61
2024/03/09 02:21:10;;;;;;;;;;;22.10;39.30;;;;;;5054345;28;19968;-62
2024/03/09 02:23:37;;;;;;;;;;;22.10;39.60;;;;;;5054212;28;19986;-61
2024/03/09 02:26:05;;;;;;;;;;;22.10;39.30;;;;;;5054294;28;19931;-62
2024/03/09 02:28:33;;;;;;;;;;;22.10;39.30;;;;;;5054340;28;19932;-62
2024/03/09 02:31:01;;;;;;;;;;;22.10;39.30;;;;;;5053857;28;19978;-62
2024/03/09 02:33:28;;;;;;;;;;;22.10;39.30;;;;;;5054116;28;20417;-61
2024/03/09 02:35:55;;;;;;;;;;;22.00;39.30;;;;;;5053980;28;19925;-61
2024/03/09 02:38:22;;;;;;;;;;;22.00;39.30;;;;;;5053871;28;19932;-62
2024/03/09 02:40:49;;;;;;;;;;;22.00;39.40;;;;;;5053853;28;19974;-61
2024/03/09 02:43:18;;;;;;;;;;;22.00;39.40;;;;;;5054084;28;19977;-61
2024/03/09 02:45:45;;;;;;;;;;;22.00;39.40;;;;;;5053841;28;19931;-62
2024/03/09 02:48:12;;;;;;;;;;;22.00;39.40;;;;;;5054117;28;20282;-61
2024/03/09 02:50:40;;;;;;;;;;;22.00;39.40;;;;;;5053508;28;19979;-62
2024/03/09 02:53:07;;;;;;;;;;;22.00;39.40;;;;;;5053663;28;19925;-62
2024/03/09 02:55:35;;;;;;;;;;;22.00;39.40;;;;;;5052802;28;20301;-62
2024/03/09 02:58:02;;;;;;;;;;;22.00;39.40;;;;;;5053562;28;20306;-62
2024/03/09 03:00:31;;;;;;;;;;;22.00;39.40;;;;;;5053529;28;19924;-62
2024/03/09 03:05:44;;;;;;;;;;;22.00;39.40;;;;;;5053463;28;19929;-61
2024/03/09 03:08:11;;;;;;;;;;;22.00;39.30;;;;;;5053782;28;20363;-62
2024/03/09 03:10:40;;;;;;;;;;;22.00;39.40;;;;;;5053360;28;19931;-62
2024/03/09 03:13:08;;;;;;;;;;;21.90;39.30;;;;;;5051971;28;19931;-61
2024/03/09 03:15:35;;;;;;;;;;;21.90;39.40;;;;;;5053612;28;19925;-62
2024/03/09 03:18:07;;;;;;;;;;;22.00;39.40;;;;;;5053622;28;20345;-62
2024/03/09 03:20:34;;;;;;;;;;;22.00;39.40;;;;;;5053349;28;19925;-62
2024/03/09 03:23:03;;;;;;;;;;;22.00;39.40;;;;;;5053050;28;19967;-62
2024/03/09 03:25:30;;;;;;;;;;;22.00;39.40;;;;;;5053294;28;20321;-62
2024/03/09 03:27:57;;;;;;;;;;;22.00;39.30;;;;;;5053528;28;19925;-62
2024/03/09 03:30:25;;;;;;;;;;;22.00;39.20;;;;;;5053423;28;20015;-64
2024/03/09 03:32:52;;;;;;;;;;;22.00;39.20;;;;;;5053315;28;19979;-62
2024/03/09 03:35:19;;;;;;;;;;;22.00;39.80;;;;;;5053481;28;19964;-62
2024/03/09 03:37:46;;;;;;;;;;;22.00;39.20;;;;;;5053103;28;19979;-62
2024/03/09 03:40:15;;;;;;;;;;;22.00;39.20;;;;;;5053053;28;19929;-61
2024/03/09 03:42:41;;;;;;;;;;;22.00;39.20;;;;;;5052785;28;20302;-62
2024/03/09 03:45:12;;;;;;;;;;;22.00;39.30;;;;;;5053396;28;19971;-61
2024/03/09 03:47:38;;;;;;;;;;;22.00;39.30;;;;;;5052930;28;19938;-62
2024/03/09 03:50:08;;;;;;;;;;;22.00;39.30;;;;;;5053307;28;19925;-61
2024/03/09 03:52:38;;;;;;;;;;;22.00;39.30;;;;;;5052810;28;19924;-62
2024/03/09 03:55:11;;;;;;;;;;;22.00;39.40;;;;;;5052874;28;19979;-62
2024/03/09 03:57:39;;;;;;;;;;;21.90;39.30;;;;;;5048741;28;19932;-62
2024/03/09 04:00:09;;;;;;;;;;;21.90;39.30;;;;;;5053252;28;19925;-62
2024/03/09 04:02:40;;;;;;;;;;;21.90;39.30;;;;;;5053011;28;19925;-62
2024/03/09 04:05:07;;;;;;;;;;;21.90;39.30;;;;;;5053175;28;19982;-61
2024/03/09 04:07:35;;;;;;;;;;;21.90;39.40;;;;;;5052766;28;19925;-62
2024/03/09 04:10:02;;;;;;;;;;;21.90;39.30;;;;;;5052979;28;19925;-62
2024/03/09 04:12:29;;;;;;;;;;;21.90;39.40;;;;;;5053115;28;19952;-61
2024/03/09 04:14:57;;;;;;;;;;;21.90;39.40;;;;;;5052741;28;20349;-62
2024/03/09 04:17:24;;;;;;;;;;;21.90;39.30;;;;;;5052665;28;20015;-61
2024/03/09 04:19:51;;;;;;;;;;;21.90;39.30;;;;;;5053067;28;19925;-62
2024/03/09 04:22:20;;;;;;;;;;;21.90;39.30;;;;;;5052614;28;19925;-62
2024/03/09 04:24:47;;;;;;;;;;;21.90;39.30;;;;;;5055281;28;20329;-62
2024/03/09 04:27:14;;;;;;;;;;;21.90;39.30;;;;;;5056516;28;20381;-61
2024/03/09 04:29:44;;;;;;;;;;;21.90;39.30;;;;;;5056446;28;19925;-62
2024/03/09 04:32:13;;;;;;;;;;;21.90;39.30;;;;;;5056588;28;19925;-62
2024/03/09 04:34:40;;;;;;;;;;;21.90;39.30;;;;;;5056667;28;19925;-62
2024/03/09 04:37:08;;;;;;;;;;;21.90;39.30;;;;;;5055973;28;20408;-62
2024/03/09 04:39:40;;;;;;;;;;;21.90;39.40;;;;;;5056300;28;19996;-62
2024/03/09 04:42:07;;;;;;;;;;;22.00;38.50;;;;;;5056434;28;19925;-62
2024/03/09 04:44:34;;;;;;;;;;;22.00;38.30;;;;;;5055933;28;19978;-61
2024/03/09 04:47:01;;;;;;;;;;;22.00;38.10;;;;;;5056371;28;20023;-62
2024/03/09 04:49:28;;;;;;;;;;;22.10;37.90;;;;;;5056387;28;19924;-61
2024/03/09 04:51:59;;;;;;;;;;;22.10;37.70;;;;;;5056034;28;19932;-62
2024/03/09 04:54:26;;;;;;;;;;;22.10;37.70;;;;;;5055955;28;20370;-61
2024/03/09 04:56:53;;;;;;;;;;;22.10;37.60;;;;;;5055746;28;19936;-62
2024/03/09 04:59:20;;;;;;;;;;;22.10;37.60;;;;;;5056071;28;19925;-62
2024/03/09 05:01:47;;;;;;;;;;;22.10;37.50;;;;;;5055696;28;20294;-62
2024/03/09 05:04:14;;;;;;;;;;;22.10;37.40;;;;;;5056099;28;19925;-62
2024/03/09 05:06:43;;;;;;;;;;;22.10;37.40;;;;;;5055884;28;20317;-62
2024/03/09 05:09:14;;;;;;;;;;;22.10;37.30;;;;;;5055719;28;19932;-62
2024/03/09 05:11:41;;;;;;;;;;;22.10;37.30;;;;;;5070634;28;20016;-62
2024/03/09 05:14:08;;;;;;;;;;;22.10;37.10;;;;;;5055768;28;19932;-62
2024/03/09 05:16:35;;;;;;;;;;;22.10;37.10;;;;;;5055925;28;19925;-62
2024/03/09 05:19:02;;;;;;;;;;;22.10;37.00;;;;;;5055622;28;20293;-62
2024/03/09 05:21:34;;;;;;;;;;;22.10;37.00;;;;;;5055441;28;20015;-61
2024/03/09 05:24:01;;;;;;;;;;;22.10;36.90;;;;;;5055312;28;19978;-62
2024/03/09 05:26:32;;;;;;;;;;;22.10;36.80;;;;;;5055277;28;19924;-61
2024/03/09 05:29:00;;;;;;;;;;;22.10;36.80;;;;;;5055225;28;19928;-62
2024/03/09 05:31:27;;;;;;;;;;;22.10;36.80;;;;;;5055293;28;20293;-62
2024/03/09 05:33:54;;;;;;;;;;;22.10;36.70;;;;;;5054932;28;19929;-62
2024/03/09 05:36:21;;;;;;;;;;;22.10;36.60;;;;;;5054841;28;20011;-62
2024/03/09 05:38:49;;;;;;;;;;;22.10;36.60;;;;;;5055048;28;20374;-62
2024/03/09 05:41:16;;;;;;;;;;;22.10;36.60;;;;;;5055028;28;20015;-62
2024/03/09 05:43:44;;;;;;;;;;;22.20;36.60;;;;;;5055349;28;19976;-62
2024/03/09 05:46:13;;;;;;;;;;;22.20;36.60;;;;;;5055018;28;20015;-62
2024/03/09 05:48:40;;;;;;;;;;;22.20;36.50;;;;;;5054306;28;19931;-61
2024/03/09 05:51:09;;;;;;;;;;;22.20;36.50;;;;;;5054600;28;19964;-62
2024/03/09 05:53:37;;;;;;;;;;;22.20;36.50;;;;;;5054579;28;19925;-61
2024/03/09 05:56:05;;;;;;;;;;;22.20;36.40;;;;;;5053634;28;20374;-62
2024/03/09 05:58:32;;;;;;;;;;;22.20;36.30;;;;;;5054815;28;19926;-61
2024/03/09 06:00:59;;;;;;;;;;;22.30;36.30;;;;;;5054632;28;19951;-62
2024/03/09 06:03:26;;;;;;;;;;;22.30;36.30;;;;;;5054849;28;19932;-62
2024/03/09 06:05:53;;;;;;;;;;;22.30;36.20;;;;;;5054947;28;19925;-61
2024/03/09 06:08:21;;;;;;;;;;;22.30;36.20;;;;;;5054544;28;20386;-62
2024/03/09 06:10:49;;;;;;;;;;;22.30;36.20;;;;;;5054637;28;19924;-61
2024/03/09 06:13:27;;;;;;;;;;;22.30;36.10;;;;;;5054602;28;19936;-61
2024/03/09 06:15:55;;;;;;;;;;;22.30;36.10;;;;;;5054532;28;19929;-62
2024/03/09 06:18:23;;;;;;;;;;;22.30;36.10;;;;;;5054095;28;19928;-61
2024/03/09 06:20:51;;;;;;;;;;;22.30;36.00;;;;;;5054659;28;20004;-61
2024/03/09 06:23:19;;;;;;;;;;;22.30;36.00;;;;;;5054106;28;19924;-61
2024/03/09 06:25:46;;;;;;;;;;;22.40;36.00;;;;;;5054293;28;20008;-62
2024/03/09 06:28:14;;;;;;;;;;;22.30;36.00;;;;;;5054227;28;20298;-62
2024/03/09 06:30:41;;;;;;;;;;;22.40;35.90;;;;;;5053896;28;20621;-62
2024/03/09 06:33:09;;;;;;;;;;;22.40;35.90;;;;;;5053990;28;19970;-62
2024/03/09 06:35:36;;;;;;;;;;;22.40;35.90;;;;;;5054076;28;19992;-61
2024/03/09 06:38:10;;;;;;;;;;;22.40;35.70;;;;;;5053703;28;20421;-62
2024/03/09 06:40:40;;;;;;;;;;;22.40;35.70;;;;;;5054024;28;19951;-61
2024/03/09 06:43:08;;;;;;;;;;;22.50;35.70;;;;;;5053928;28;20392;-62
2024/03/09 06:45:36;;;;;;;;;;;22.50;35.70;;;;;;5054057;28;19964;-62
2024/03/09 06:48:03;;;;;;;;;;;22.60;35.70;;;;;;5053017;28;19925;-62
2024/03/09 06:50:31;;;;;;;;;;;22.60;35.60;;;;;;5053933;28;20351;-61
2024/03/09 06:52:59;;;;;;;;;;;22.60;35.50;;;;;;5051929;28;19935;-62
2024/03/09 06:55:26;;;;;;;;;;;22.60;35.50;;;;;;5053721;28;20436;-61
2024/03/09 06:57:54;;;;;;;;;;;22.60;35.40;;;;;;5053999;28;19925;-61
2024/03/09 07:00:21;;;;;;;;;;;22.60;35.40;;;;;;5053655;28;19925;-61
2024/03/09 07:02:52;;;;;;;;;;;22.70;35.40;;;;;;5053511;28;20428;-61
2024/03/09 07:05:20;;;;;;;;;;;22.70;35.40;;;;;;5053485;28;20294;-62
2024/03/09 07:07:48;;;;;;;;;;;22.70;35.30;;;;;;5053394;28;19925;-61
2024/03/09 07:10:15;;;;;;;;;;;22.70;35.20;;;;;;5053583;28;20378;-62
2024/03/09 07:12:42;;;;;;;;;;;22.70;35.20;;;;;;5052987;28;19925;-61
2024/03/09 07:15:16;;;;;;;;;;;22.80;35.20;;;;;;5053454;28;19932;-61
2024/03/09 07:17:48;;;;;;;;;;;22.80;35.10;;;;;;5050364;28;19925;-61
2024/03/09 07:20:16;;;;;;;;;;;22.80;35.10;;;;;;5053608;28;19964;-62
2024/03/09 07:22:44;;;;;;;;;;;22.80;35.00;;;;;;5050976;28;19924;-61
2024/03/09 07:25:16;;;;;;;;;;;22.90;35.00;;;;;;5052614;28;19971;-62
2024/03/09 07:27:43;;;;;;;;;;;22.90;35.00;;;;;;5052126;28;20379;-61
2024/03/09 07:30:11;;;;;;;;;;;22.90;34.90;;;;;;5052399;28;19933;-62
2024/03/09 07:32:39;;;;;;;;;;;23.00;34.90;;;;;;5052762;28;19925;-61
2024/03/09 07:35:14;;;;;;;;;;;23.00;34.90;;;;;;5053396;28;19964;-62
2024/03/09 07:37:42;;;;;;;;;;;23.00;34.80;;;;;;5053330;28;19925;-61
2024/03/09 07:40:10;;;;;;;;;;;23.00;34.80;;;;;;5052896;28;19925;-62
2024/03/09 07:42:38;;;;;;;;;;;23.10;34.80;;;;;;5052895;28;20275;-61
2024/03/09 07:45:15;;;;;;;;;;;23.10;34.70;;;;;;5052809;28;20350;-64
2024/03/09 07:47:43;;;;;;;;;;;23.10;34.60;;;;;;5051018;28;19925;-61
2024/03/09 07:50:15;;;;;;;;;;;23.20;34.60;;;;;;5052060;28;19925;-62
2024/03/09 07:52:43;;;;;;;;;;;23.20;34.60;;;;;;5052546;28;20005;-61
2024/03/09 07:55:11;;;;;;;;;;;23.20;34.50;;;;;;5051326;28;19925;-62
2024/03/09 07:57:40;;;;;;;;;;;23.30;34.50;;;;;;5051489;28;19932;-61
2024/03/09 08:00:08;;;;;;;;;;;23.30;34.40;;;;;;5055123;28;19924;-64
2024/03/09 08:02:35;;;;;;;;;;;23.30;34.40;;;;;;5054053;28;19925;-62
2024/03/09 08:05:04;;;;;;;;;;;23.30;34.30;;;;;;5056527;28;19958;-61
2024/03/09 08:07:31;;;;;;;;;;;23.30;34.30;;;;;;5051051;28;19928;-61
2024/03/09 08:09:57;;;;;;;;;;;23.40;34.40;;;;;;5055627;28;20366;-61
2024/03/09 08:12:24;;;;;;;;;;;23.40;34.30;;;;;;5055815;28;20028;-61
2024/03/09 08:14:51;;;;;;;;;;;23.40;34.30;;;;;;5056510;28;19940;-61
2024/03/09 08:17:18;;;;;;;;;;;23.50;34.30;;;;;;5055832;28;19928;-62
2024/03/09 08:19:45;;;;;;;;;;;23.50;34.20;;;;;;5052023;28;19970;-61
2024/03/09 08:22:12;;;;;;;;;;;23.60;34.20;;;;;;5056246;28;19999;-62
2024/03/09 08:24:39;;;;;;;;;;;23.60;34.10;;;;;;5056251;28;19960;-61
2024/03/09 08:27:06;;;;;;;;;;;23.60;34.00;;;;;;5056295;28;19987;-62
2024/03/09 08:29:33;;;;;;;;;;;23.70;34.00;;;;;;5049340;28;20014;-62
2024/03/09 08:32:05;;;;;;;;;;;23.70;33.90;;;;;;5055136;28;20461;-62
2024/03/09 08:34:32;;;;;;;;;;;23.80;33.90;;;;;;5055662;28;19985;-62
2024/03/09 08:36:59;;;;;;;;;;;23.80;33.80;;;;;;5056158;28;20302;-62
2024/03/09 08:39:27;;;;;;;;;;;23.90;33.80;;;;;;5055137;28;19964;-61
2024/03/09 08:41:55;;;;;;;;;;;23.90;33.70;;;;;;5055865;28;19987;-62
2024/03/09 08:44:22;;;;;;;;;;;23.90;33.60;;;;;;5055809;28;19931;-63
2024/03/09 08:46:49;;;;;;;;;;;23.90;33.60;;;;;;5055314;28;19942;-64
2024/03/09 08:49:20;;;;;;;;;;;24.00;33.60;;;;;;5055302;28;19947;-63
2024/03/09 08:51:47;;;;;;;;;;;24.00;33.50;;;;;;5055431;28;20016;-61
2024/03/09 08:54:13;;;;;;;;;;;24.00;33.50;;;;;;5055171;28;19925;-61
2024/03/09 08:56:41;;;;;;;;;;;24.10;33.50;;;;;;5037867;28;20032;-61
2024/03/09 08:59:10;;;;;;;;;;;24.10;33.40;;;;;;5039585;28;20398;-62
2024/03/09 09:01:37;;;;;;;;;;;24.10;33.40;;;;;;5038208;28;19932;-62
2024/03/09 09:04:05;;;;;;;;;;;24.10;33.40;;;;;;5056017;28;20016;-62
2024/03/09 09:06:32;;;;;;;;;;;24.20;33.40;;;;;;5054768;28;20007;-61
2024/03/09 09:08:59;;;;;;;;;;;24.20;33.30;;;;;;5055812;28;19925;-62
2024/03/09 09:11:28;;;;;;;;;;;24.30;33.30;;;;;;5054559;28;19925;-62
2024/03/09 09:13:55;;;;;;;;;;;24.30;33.10;;;;;;5054379;28;20527;-61
2024/03/09 09:16:22;;;;;;;;;;;24.40;33.00;;;;;;5054492;28;19932;-62
2024/03/09 09:18:49;;;;;;;;;;;24.40;33.00;;;;;;5054728;28;19979;-62
2024/03/09 09:21:16;;;;;;;;;;;24.50;33.00;;;;;;5053985;28;20012;-62
2024/03/09 09:23:45;;;;;;;;;;;24.50;32.90;;;;;;5054334;28;19925;-61
2024/03/09 09:26:11;;;;;;;;;;;24.50;32.80;;;;;;5055144;28;20413;-62
2024/03/09 09:28:38;;;;;;;;;;;24.60;32.80;;;;;;5054344;28;19925;-61
2024/03/09 09:31:06;;;;;;;;;;;24.60;32.80;;;;;;5054570;28;19925;-62
2024/03/09 09:33:33;;;;;;;;;;;24.60;32.80;;;;;;5055276;28;20020;-62
2024/03/09 09:36:00;;;;;;;;;;;24.60;32.70;;;;;;5055450;28;19924;-61
2024/03/09 09:38:29;;;;;;;;;;;24.60;32.70;;;;;;5055024;28;20456;-62
2024/03/09 09:40:57;;;;;;;;;;;24.60;32.70;;;;;;5055194;28;20286;-61
2024/03/09 09:43:28;;;;;;;;;;;24.70;32.60;;;;;;5055082;28;20015;-63
2024/03/09 09:45:57;;;;;;;;;;;24.70;32.50;;;;;;5055057;28;19972;-61
2024/03/09 09:48:28;;;;;;;;;;;24.70;32.40;;;;;;5055147;28;19925;-62
2024/03/09 09:50:55;;;;;;;;;;;24.80;32.40;;;;;;5054820;28;20362;-61
2024/03/09 09:53:23;;;;;;;;;;;24.80;32.40;;;;;;5054659;28;20405;-61
2024/03/09 09:55:51;;;;;;;;;;;24.80;32.30;;;;;;5054432;28;19999;-61
2024/03/09 09:58:18;;;;;;;;;;;24.80;32.10;;;;;;5054662;28;20009;-61
2024/03/09 10:00:45;;;;;;;;;;;24.80;32.10;;;;;;5054876;28;20553;-61
2024/03/09 10:03:12;;;;;;;;;;;24.90;32.10;;;;;;5054555;28;19925;-61
2024/03/09 10:05:39;;;;;;;;;;;24.90;32.10;;;;;;5054657;28;19983;-62
2024/03/09 10:08:11;;;;;;;;;;;24.90;32.40;;;;;;5054839;28;20063;-62
2024/03/09 10:10:43;;;;;;;;;;;24.90;32.00;;;;;;5054614;28;19925;-62
2024/03/09 10:13:11;;;;;;;;;;;24.90;32.00;;;;;;5054551;28;20297;-61
2024/03/09 10:15:40;;;;;;;;;;;25.00;32.10;;;;;;5054513;28;19960;-62
2024/03/09 10:18:08;;;;;;;;;;;25.00;32.00;;;;;;5054644;28;20271;-61
2024/03/09 10:20:36;;;;;;;;;;;25.00;32.00;;;;;;5054688;28;19929;-62
2024/03/09 10:23:04;;;;;;;;;;;25.10;31.90;;;;;;5053976;28;20286;-62
2024/03/09 10:25:35;;;;;;;;;;;25.10;31.90;;;;;;5054062;28;19933;-62
2024/03/09 10:28:04;;;;;;;;;;;25.10;31.80;;;;;;5054115;28;19947;-62
2024/03/09 10:30:32;;;;;;;;;;;25.10;32.30;;;;;;5054399;28;19987;-63
2024/03/09 10:32:59;;;;;;;;;;;25.10;31.60;;;;;;5053903;28;19924;-62
2024/03/09 10:35:26;;;;;;;;;;;25.10;31.60;;;;;;5054093;28;19925;-62
2024/03/09 10:37:55;;;;;;;;;;;25.10;31.50;;;;;;5054095;28;20317;-62
2024/03/09 10:40:22;;;;;;;;;;;25.10;31.60;;;;;;5054211;28;20343;-61
2024/03/09 10:42:50;;;;;;;;;;;25.20;31.50;;;;;;5054057;28;19979;-61
2024/03/09 10:45:18;;;;;;;;;;;25.20;31.50;;;;;;5053789;28;19936;-62
2024/03/09 10:47:50;;;;;;;;;;;25.20;31.40;;;;;;5050536;28;20024;-61
2024/03/09 10:50:21;;;;;;;;;;;25.30;31.50;;;;;;5054150;28;20031;-62
2024/03/09 10:52:52;;;;;;;;;;;25.30;31.40;;;;;;5053782;28;19925;-61
2024/03/09 10:55:24;;;;;;;;;;;25.30;31.30;;;;;;5053621;28;19970;-61
2024/03/09 10:57:53;;;;;;;;;;;25.30;31.20;;;;;;5053717;28;20366;-62
2024/03/09 11:00:28;;;;;;;;;;;25.30;31.10;;;;;;5053615;28;19931;-62
2024/03/09 11:02:56;;;;;;;;;;;25.30;31.00;;;;;;5053550;28;19935;-62
2024/03/09 11:05:23;;;;;;;;;;;25.30;31.10;;;;;;5053554;28;20016;-62
2024/03/09 11:07:51;;;;;;;;;;;25.40;31.10;;;;;;5053595;28;19925;-62
2024/03/09 11:10:19;;;;;;;;;;;25.30;31.10;;;;;;5053753;28;19929;-62
2024/03/09 11:12:47;;;;;;;;;;;25.30;31.00;;;;;;5051956;28;20374;-62
2024/03/09 11:15:13;;;;;;;;;;;25.20;30.90;;;;;;5053694;28;20263;-62
2024/03/09 11:17:42;;;;;;;;;;;25.30;31.00;;;;;;5053290;28;19951;-62
2024/03/09 11:20:12;;;;;;;;;;;25.30;31.00;;;;;;5053478;28;19925;-62
2024/03/09 11:22:40;;;;;;;;;;;25.30;31.00;;;;;;5053191;28;19932;-62
2024/03/09 11:25:11;;;;;;;;;;;25.30;30.90;;;;;;5049543;28;19925;-62
2024/03/09 11:27:44;;;;;;;;;;;25.30;30.90;;;;;;5053060;28;20019;-62
2024/03/09 11:30:17;;;;;;;;;;;25.30;30.90;;;;;;5053545;28;19935;-62
2024/03/09 11:32:46;;;;;;;;;;;25.30;30.90;;;;;;5052894;28;19925;-62
2024/03/09 11:35:26;;;;;;;;;;;25.30;30.90;;;;;;5053102;28;19925;-61
2024/03/09 11:37:53;;;;;;;;;;;25.30;30.70;;;;;;5053002;28;19924;-62
2024/03/09 11:40:19;;;;;;;;;;;25.30;30.70;;;;;;5053469;28;19970;-62
2024/03/09 11:42:46;;;;;;;;;;;25.30;30.80;;;;;;5053223;28;19925;-61
2024/03/09 11:45:14;;;;;;;;;;;25.40;30.80;;;;;;5052891;28;20385;-61
2024/03/09 11:47:41;;;;;;;;;;;25.40;30.70;;;;;;5052928;28;19925;-61
2024/03/09 11:50:08;;;;;;;;;;;25.40;30.70;;;;;;5053456;28;20365;-61
2024/03/09 11:52:36;;;;;;;;;;;25.40;30.50;;;;;;5052641;28;19928;-61
2024/03/09 11:55:03;;;;;;;;;;;25.50;30.60;;;;;;5052949;28;19938;-61
2024/03/09 11:57:37;;;;;;;;;;;25.40;30.50;;;;;;5052960;28;19951;-61
2024/03/09 12:00:06;;;;;;;;;;;25.50;30.50;;;;;;5052988;28;19925;-62
2024/03/09 12:02:37;;;;;;;;;;;25.50;30.50;;;;;;5053348;28;20362;-61
2024/03/09 12:05:15;;;;;;;;;;;25.50;30.60;;;;;;5052989;28;19929;-62
2024/03/09 12:07:43;;;;;;;;;;;25.50;30.60;;;;;;5052695;28;19971;-61
2024/03/09 12:10:13;;;;;;;;;;;25.40;30.50;;;;;;5052970;28;19932;-62
2024/03/09 12:12:48;;;;;;;;;;;25.40;30.50;;;;;;5052270;28;19929;-61
2024/03/09 12:15:16;;;;;;;;;;;25.40;30.50;;;;;;5052977;28;19925;-61
2024/03/09 12:17:44;;;;;;;;;;;25.40;30.40;;;;;;5052908;28;19929;-61
2024/03/09 12:20:13;;;;;;;;;;;25.40;30.50;;;;;;5052729;28;20027;-61
2024/03/09 12:22:40;;;;;;;;;;;25.40;30.50;;;;;;5053102;28;19979;-61
2024/03/09 12:25:07;;;;;;;;;;;25.40;30.50;;;;;;5052854;28;20382;-61
2024/03/09 12:27:37;;;;;;;;;;;25.40;30.50;;;;;;5052501;28;20383;-61
2024/03/09 12:30:05;;;;;;;;;;;25.40;30.50;;;;;;5052893;28;19925;-62
2024/03/09 12:32:32;;;;;;;;;;;25.50;30.60;;;;;;5052766;28;20350;-62
2024/03/09 12:35:02;;;;;;;;;;;25.50;30.60;;;;;;5052490;28;19931;-62
2024/03/09 12:37:29;;;;;;;;;;;25.50;30.70;;;;;;5052626;28;20017;-62
2024/03/09 12:40:08;;;;;;;;;;;25.50;30.60;;;;;;5052555;28;19960;-62
2024/03/09 12:42:42;;;;;;;;;;;25.50;30.60;;;;;;5052559;28;19925;-62
2024/03/09 12:45:20;;;;;;;;;;;25.50;30.50;;;;;;5052153;28;19928;-62
2024/03/09 12:47:47;;;;;;;;;;;25.60;30.50;;;;;;5056248;28;19964;-61
2024/03/09 12:50:16;;;;;;;;;;;25.60;30.40;;;;;;5056572;28;20353;-62
2024/03/09 12:52:47;;;;;;;;;;;25.70;30.40;;;;;;5054928;28;19924;-62
2024/03/09 12:55:16;;;;;;;;;;;25.70;30.30;;;;;;5056279;28;19932;-62
2024/03/09 12:57:43;;;;;;;;;;;25.70;30.90;;;;;;5056025;28;19926;-61
2024/03/09 13:00:19;;;;;;;;;;;25.70;30.30;;;;;;5056299;28;20015;-62
2024/03/09 13:02:52;;;;;;;;;;;25.70;30.30;;;;;;5055559;28;19929;-61
2024/03/09 13:05:20;;;;;;;;;;;25.80;30.40;;;;;;5056247;28;20027;-62
2024/03/09 13:07:59;;;;;;;;;;;25.70;30.30;;;;;;5055805;28;20026;-61
2024/03/09 13:10:35;;;;;;;;;;;25.70;30.40;;;;;;5055645;28;20374;-61
2024/03/09 13:13:06;;;;;;;;;;;25.70;30.40;;;;;;5055786;28;20006;-62
2024/03/09 13:15:35;;;;;;;;;;;25.60;30.40;;;;;;5055704;28;19925;-61
2024/03/09 13:18:05;;;;;;;;;;;25.70;30.40;;;;;;5055459;28;19975;-62
2024/03/09 13:20:32;;;;;;;;;;;25.60;30.50;;;;;;5055441;28;19925;-61
2024/03/09 13:23:00;;;;;;;;;;;25.50;30.50;;;;;;5055361;28;19925;-62
2024/03/09 13:25:31;;;;;;;;;;;25.50;30.60;;;;;;5055398;28;19932;-61
2024/03/09 13:27:58;;;;;;;;;;;25.40;30.60;;;;;;5055385;28;19976;-61
2024/03/09 13:30:27;;;;;;;;;;;25.40;30.70;;;;;;5055448;28;20275;-62
2024/03/09 13:32:55;;;;;;;;;;;25.40;30.60;;;;;;5055390;28;19925;-61
2024/03/09 13:35:22;;;;;;;;;;;25.40;30.70;;;;;;5055453;28;19925;-61
2024/03/09 13:37:49;;;;;;;;;;;25.30;30.70;;;;;;5054957;28;19925;-62
2024/03/09 13:40:25;;;;;;;;;;;25.30;30.80;;;;;;5055446;28;20391;-62
2024/03/09 13:42:55;;;;;;;;;;;25.30;30.90;;;;;;5055413;28;20011;-61
2024/03/09 13:45:23;;;;;;;;;;;25.20;30.90;;;;;;5055364;28;20325;-62
2024/03/09 13:48:05;;;;;;;;;;;25.20;30.90;;;;;;5054909;28;20263;-61
2024/03/09 13:50:34;;;;;;;;;;;25.20;31.10;;;;;;5054958;28;20374;-61
2024/03/09 13:53:05;;;;;;;;;;;25.20;31.10;;;;;;5054856;28;19925;-61
2024/03/09 13:55:33;;;;;;;;;;;25.10;31.00;;;;;;5054981;28;19931;-61
2024/03/09 13:58:04;;;;;;;;;;;25.10;30.90;;;;;;5054599;28;20015;-61
2024/03/09 14:00:31;;;;;;;;;;;25.10;31.00;;;;;;5054968;28;19929;-62
2024/03/09 14:02:59;;;;;;;;;;;25.10;31.00;;;;;;5055032;28;19925;-61
2024/03/09 14:05:26;;;;;;;;;;;25.10;31.00;;;;;;5052112;28;19933;-61
2024/03/09 14:07:58;;;;;;;;;;;25.00;31.00;;;;;;5054461;28;19925;-61
2024/03/09 14:10:38;;;;;;;;;;;25.00;31.00;;;;;;5055034;28;19939;-62
2024/03/09 14:13:08;;;;;;;;;;;25.00;31.00;;;;;;5054597;28;20356;-61
2024/03/09 14:15:37;;;;;;;;;;;25.00;31.00;;;;;;5054798;28;19925;-61
2024/03/09 14:18:06;;;;;;;;;;;25.00;31.20;;;;;;5054736;28;19931;-61
2024/03/09 14:20:36;;;;;;;;;;;25.00;31.10;;;;;;5054535;28;19998;-61
2024/03/09 14:23:03;;;;;;;;;;;25.00;31.20;;;;;;5054222;28;19928;-61
2024/03/09 14:25:30;;;;;;;;;;;25.00;31.10;;;;;;5054264;28;19931;-61